Time;durP1;ratioP1;P1;durP2;ratioP2;P2;SDS_P1;SDS_P2;PMS_P1;PMS_P2;Temp;Humidity;BMP_temperature;BMP_pressure;BME280_temperature;BME280_humidity;BME280_pressure;Samples;Min_cycle;Max_cycle;Signal;HPM_P1;HPM_P2
2023/05/31 00:01:11;;;;;;;6.63;3.65;;;18.10;99.90;;;;;;5000000;28;20026;-71
2023/05/31 00:03:40;;;;;;;9.15;4.18;;;18.00;99.90;;;;;;5000421;28;20042;-71
2023/05/31 00:06:07;;;;;;;9.65;5.60;;;18.00;99.90;;;;;;4999937;28;20502;-71
2023/05/31 00:08:32;;;;;;;9.57;5.60;;;17.80;99.90;;;;;;4999511;28;20109;-69
2023/05/31 00:10:58;;;;;;;7.35;4.63;;;17.80;99.90;;;;;;4999560;28;20061;-69
2023/05/31 00:13:24;;;;;;;8.63;5.03;;;17.70;99.90;;;;;;4999453;28;20041;-69
2023/05/31 00:15:49;;;;;;;8.43;4.63;;;17.70;99.90;;;;;;4999415;28;20082;-69
2023/05/31 00:18:15;;;;;;;9.95;4.82;;;17.70;99.90;;;;;;4999387;28;20081;-69
2023/05/31 00:20:41;;;;;;;6.65;4.40;;;17.70;99.90;;;;;;4999381;28;20477;-69
2023/05/31 00:23:06;;;;;;;7.43;4.13;;;17.70;99.90;;;;;;4999376;28;20023;-69
2023/05/31 00:25:32;;;;;;;9.93;4.30;;;17.80;99.90;;;;;;4998690;28;20129;-68
2023/05/31 00:27:57;;;;;;;5.78;4.35;;;17.80;99.90;;;;;;4999236;28;20054;-69
2023/05/31 00:30:23;;;;;;;7.80;4.63;;;17.80;99.90;;;;;;4978557;28;20030;-69
2023/05/31 00:32:49;;;;;;;6.78;4.88;;;17.80;99.90;;;;;;4993723;28;20029;-69
2023/05/31 00:35:14;;;;;;;7.03;4.50;;;17.80;99.90;;;;;;4999375;28;20035;-69
2023/05/31 00:37:40;;;;;;;7.43;4.72;;;17.80;99.90;;;;;;4998844;28;20033;-69
2023/05/31 00:40:06;;;;;;;7.53;4.55;;;17.70;99.90;;;;;;4978059;28;20464;-68
2023/05/31 00:42:32;;;;;;;4.78;3.55;;;17.60;99.90;;;;;;4993506;28;20030;-69
2023/05/31 00:44:58;;;;;;;9.57;4.70;;;17.60;99.90;;;;;;4998689;28;20033;-69
2023/05/31 00:47:25;;;;;;;8.02;4.57;;;17.60;99.90;;;;;;4998819;28;20027;-69
2023/05/31 00:49:52;;;;;;;7.25;4.20;;;17.60;99.90;;;;;;4998542;28;20038;-69
2023/05/31 00:52:19;;;;;;;8.73;4.80;;;17.60;99.90;;;;;;4998859;28;20128;-69
2023/05/31 00:54:45;;;;;;;7.35;4.47;;;17.60;99.90;;;;;;4981253;28;20029;-68
2023/05/31 00:57:10;;;;;;;7.88;3.88;;;17.70;99.90;;;;;;4998603;28;20054;-68
2023/05/31 00:59:36;;;;;;;7.20;4.45;;;17.70;99.90;;;;;;4998668;28;20030;-69
2023/05/31 01:02:03;;;;;;;7.07;4.10;;;17.70;99.90;;;;;;4998411;28;20034;-69
2023/05/31 01:04:30;;;;;;;8.73;4.35;;;17.80;99.90;;;;;;4999300;28;20032;-69
2023/05/31 01:06:56;;;;;;;7.78;4.57;;;17.80;99.90;;;;;;4998363;28;20018;-70
2023/05/31 01:09:23;;;;;;;7.20;3.92;;;17.80;99.90;;;;;;4998655;28;20077;-69
2023/05/31 01:12:06;;;;;;;4.57;3.80;;;17.80;99.90;;;;;;4998240;28;20023;-69
2023/05/31 01:14:56;;;;;;;6.10;4.18;;;17.90;99.90;;;;;;4998368;28;20084;-69
2023/05/31 01:17:37;;;;;;;7.55;4.05;;;18.00;99.90;;;;;;4997246;28;20026;-69
2023/05/31 01:20:11;;;;;;;9.13;4.22;;;18.00;99.90;;;;;;4998178;28;20065;-69
2023/05/31 01:23:10;;;;;;;6.85;4.40;;;18.00;99.90;;;;;;4998080;28;20076;-69
2023/05/31 01:25:41;;;;;;;8.30;4.00;;;17.90;99.90;;;;;;4997791;28;20026;-69
2023/05/31 01:28:08;;;;;;;6.47;4.22;;;17.90;99.90;;;;;;4980700;28;20057;-70
2023/05/31 01:30:37;;;;;;;6.70;4.07;;;18.00;99.90;;;;;;4997966;28;20073;-69
2023/05/31 01:33:08;;;;;;;5.60;3.58;;;17.90;99.90;;;;;;4997602;28;20030;-69
2023/05/31 01:35:34;;;;;;;6.88;4.28;;;17.90;99.90;;;;;;4997536;28;20101;-69
2023/05/31 01:37:59;;;;;;;6.40;3.90;;;17.90;99.90;;;;;;4997682;28;20034;-69
2023/05/31 01:40:25;;;;;;;7.93;4.07;;;17.90;99.90;;;;;;4997697;28;20034;-69
2023/05/31 01:42:52;;;;;;;4.53;3.58;;;17.90;99.90;;;;;;4997689;28;20022;-69
2023/05/31 01:45:19;;;;;;;5.47;3.63;;;17.90;99.90;;;;;;4997386;28;20485;-70
2023/05/31 01:47:47;;;;;;;6.22;4.05;;;17.80;99.90;;;;;;4997718;28;20077;-69
2023/05/31 01:50:14;;;;;;;5.68;4.07;;;17.80;99.90;;;;;;4997807;28;20026;-69
2023/05/31 01:52:40;;;;;;;6.68;4.65;;;17.80;99.90;;;;;;4997457;28;20495;-69
2023/05/31 01:55:07;;;;;;;8.27;4.38;;;17.80;99.90;;;;;;4997663;28;20440;-70
2023/05/31 01:57:35;;;;;;;7.57;3.90;;;17.80;99.90;;;;;;4997307;28;20125;-69
2023/05/31 02:00:03;;;;;;;9.60;4.30;;;17.70;99.90;;;;;;4997651;28;20022;-69
2023/05/31 02:02:30;;;;;;;7.43;3.90;;;17.70;99.90;;;;;;4997364;28;20014;-69
2023/05/31 02:05:11;;;;;;;7.65;4.47;;;17.60;99.90;;;;;;4998909;28;20037;-70
2023/05/31 02:07:37;;;;;;;8.23;3.80;;;17.60;99.90;;;;;;4997581;28;20049;-69
2023/05/31 02:10:03;;;;;;;6.55;4.15;;;17.60;99.90;;;;;;4997454;28;20050;-69
2023/05/31 02:12:29;;;;;;;6.00;3.67;;;17.60;99.90;;;;;;4997389;28;20076;-69
2023/05/31 02:14:55;;;;;;;6.80;4.32;;;17.50;99.90;;;;;;4997524;28;20030;-69
2023/05/31 02:17:24;;;;;;;5.97;4.05;;;17.50;99.90;;;;;;4997170;28;20414;-69
2023/05/31 02:19:53;;;;;;;7.78;4.57;;;17.50;99.90;;;;;;4997209;28;20058;-69
2023/05/31 02:22:21;;;;;;;7.82;4.00;;;17.50;99.90;;;;;;4997638;28;20115;-69
2023/05/31 02:24:47;;;;;;;5.28;4.18;;;17.50;99.90;;;;;;4997168;28;20030;-69
2023/05/31 02:27:14;;;;;;;5.43;3.85;;;17.40;99.90;;;;;;4997111;28;20038;-69
2023/05/31 02:29:40;;;;;;;5.13;3.40;;;17.40;99.90;;;;;;4997359;28;20026;-69
2023/05/31 02:32:06;;;;;;;7.15;3.80;;;17.30;99.90;;;;;;4997307;28;20083;-69
2023/05/31 02:34:33;;;;;;;4.82;3.85;;;17.20;99.90;;;;;;4997271;28;20030;-69
2023/05/31 02:37:00;;;;;;;7.18;3.97;;;17.10;99.90;;;;;;4989293;28;20018;-69
2023/05/31 02:39:25;;;;;;;5.72;3.50;;;17.00;99.90;;;;;;4997027;28;20033;-68
2023/05/31 02:41:51;;;;;;;7.13;4.07;;;17.00;99.90;;;;;;4997221;28;20026;-69
2023/05/31 02:44:17;;;;;;;5.85;3.90;;;16.90;99.90;;;;;;4996863;28;20088;-68
2023/05/31 02:46:43;;;;;;;8.68;4.30;;;16.80;99.90;;;;;;4997271;28;20037;-69
2023/05/31 02:49:09;;;;;;;8.30;4.45;;;16.80;99.90;;;;;;5000712;28;20050;-69
2023/05/31 02:51:35;;;;;;;6.80;4.25;;;16.80;99.90;;;;;;5001317;28;20014;-68
2023/05/31 02:54:00;;;;;;;6.68;4.55;;;16.70;99.90;;;;;;4983307;28;20042;-69
2023/05/31 02:56:26;;;;;;;5.88;4.63;;;16.70;99.90;;;;;;5000930;28;20100;-69
2023/05/31 02:58:52;;;;;;;6.78;4.32;;;16.50;99.90;;;;;;5000659;28;20034;-69
2023/05/31 03:01:18;;;;;;;7.15;4.75;;;16.50;99.90;;;;;;4990032;28;20030;-69
2023/05/31 03:03:44;;;;;;;6.93;4.30;;;16.40;99.90;;;;;;5002584;28;20026;-69
2023/05/31 03:06:11;;;;;;;6.93;5.15;;;16.30;99.90;;;;;;4991976;28;20169;-69
2023/05/31 03:08:37;;;;;;;6.90;5.55;;;16.30;99.90;;;;;;4982774;28;20023;-69
2023/05/31 03:11:02;;;;;;;10.13;4.78;;;16.30;99.90;;;;;;5000746;28;20030;-69
2023/05/31 03:13:28;;;;;;;8.73;4.82;;;16.30;99.90;;;;;;5000430;28;20022;-69
2023/05/31 03:15:54;;;;;;;8.98;5.45;;;16.30;99.90;;;;;;5000871;28;20034;-69
2023/05/31 03:18:20;;;;;;;7.68;4.43;;;16.30;99.90;;;;;;5000083;28;20583;-69
2023/05/31 03:20:46;;;;;;;6.95;4.20;;;16.20;99.90;;;;;;5000625;28;20058;-69
2023/05/31 03:23:11;;;;;;;6.88;4.43;;;16.20;99.90;;;;;;5000201;28;20022;-69
2023/05/31 03:25:37;;;;;;;6.82;4.57;;;16.20;99.90;;;;;;5000235;28;20053;-69
2023/05/31 03:28:03;;;;;;;6.65;4.28;;;16.20;99.90;;;;;;5000243;28;20041;-69
2023/05/31 03:30:29;;;;;;;6.85;4.45;;;16.00;99.90;;;;;;5000471;28;20022;-69
2023/05/31 03:32:55;;;;;;;10.80;5.20;;;16.00;99.90;;;;;;4999912;28;20026;-69
2023/05/31 03:35:21;;;;;;;9.38;4.68;;;15.90;99.90;;;;;;5000396;28;20027;-69
2023/05/31 03:37:46;;;;;;;5.38;4.28;;;15.90;99.90;;;;;;4982437;28;20133;-68
2023/05/31 03:40:12;;;;;;;11.45;4.65;;;15.80;99.90;;;;;;5000176;28;20038;-69
2023/05/31 03:42:38;;;;;;;6.63;4.88;;;15.90;99.90;;;;;;4999907;28;20018;-69
2023/05/31 03:45:04;;;;;;;8.57;5.15;;;15.90;99.90;;;;;;4982491;28;20038;-69
2023/05/31 03:47:30;;;;;;;5.90;4.70;;;15.90;99.90;;;;;;4982296;28;20030;-69
2023/05/31 03:49:55;;;;;;;8.55;4.68;;;15.80;99.90;;;;;;4999856;28;20030;-69
2023/05/31 03:52:21;;;;;;;11.25;4.72;;;15.80;99.90;;;;;;4999892;28;20026;-69
2023/05/31 03:54:47;;;;;;;8.15;4.78;;;15.80;99.90;;;;;;4999915;28;20054;-70
2023/05/31 03:57:13;;;;;;;11.23;6.20;;;15.80;99.90;;;;;;4999838;28;20062;-69
2023/05/31 03:59:38;;;;;;;9.15;5.05;;;15.80;99.90;;;;;;4999251;28;20101;-70
2023/05/31 04:02:04;;;;;;;9.73;4.88;;;15.70;99.90;;;;;;4999579;28;20022;-69
2023/05/31 04:04:30;;;;;;;7.85;5.70;;;15.70;99.90;;;;;;4992732;28;20027;-69
2023/05/31 04:06:56;;;;;;;11.25;4.82;;;15.60;99.90;;;;;;4981647;28;20113;-69
2023/05/31 04:09:23;;;;;;;7.18;4.88;;;15.60;99.90;;;;;;4987022;28;20076;-69
2023/05/31 04:11:49;;;;;;;12.20;5.63;;;15.60;99.90;;;;;;4998328;28;20018;-70
2023/05/31 04:14:15;;;;;;;12.52;5.25;;;15.60;99.90;;;;;;4999695;28;20038;-69
2023/05/31 04:16:41;;;;;;;9.38;4.93;;;15.60;99.90;;;;;;4998129;28;20030;-69
2023/05/31 04:19:08;;;;;;;6.95;4.82;;;15.60;99.90;;;;;;4999326;28;20035;-69
2023/05/31 04:21:35;;;;;;;12.60;6.95;;;15.60;99.90;;;;;;4982430;28;20066;-69
2023/05/31 04:24:01;;;;;;;5.55;5.00;;;15.60;99.90;;;;;;4999688;28;20114;-69
2023/05/31 04:26:28;;;;;;;7.63;5.13;;;15.70;99.90;;;;;;4999293;28;20548;-69
2023/05/31 04:28:54;;;;;;;10.10;5.05;;;15.80;99.90;;;;;;4999949;28;20050;-69
2023/05/31 04:31:24;;;;;;;6.43;5.07;;;15.80;99.90;;;;;;4999541;28;20073;-69
2023/05/31 04:33:53;;;;;;;11.30;7.28;;;15.90;99.90;;;;;;4999521;28;20022;-69
2023/05/31 04:36:22;;;;;;;6.85;5.00;;;16.00;99.90;;;;;;4998069;28;20474;-69
2023/05/31 04:38:48;;;;;;;15.98;5.65;;;16.10;99.90;;;;;;4999533;28;20020;-69
2023/05/31 04:41:17;;;;;;;8.13;4.65;;;16.20;99.90;;;;;;4999055;28;20078;-70
2023/05/31 04:43:42;;;;;;;7.97;5.18;;;16.30;99.90;;;;;;4999225;28;20034;-69
2023/05/31 04:46:09;;;;;;;6.07;4.53;;;16.30;99.90;;;;;;4998714;28;20395;-69
2023/05/31 04:48:38;;;;;;;7.88;5.32;;;16.40;99.90;;;;;;4998653;28;20379;-69
2023/05/31 04:51:04;;;;;;;11.80;5.72;;;16.50;99.90;;;;;;4997435;28;20473;-69
2023/05/31 04:53:30;;;;;;;8.30;5.00;;;16.50;99.90;;;;;;4999037;28;20022;-70
2023/05/31 04:55:56;;;;;;;9.07;5.07;;;16.50;99.90;;;;;;4998220;28;20129;-70
2023/05/31 04:58:21;;;;;;;11.10;4.75;;;16.60;99.90;;;;;;4998854;28;20061;-70
2023/05/31 05:00:48;;;;;;;9.30;5.35;;;16.70;99.90;;;;;;4997649;28;20033;-69
2023/05/31 05:03:14;;;;;;;5.28;4.60;;;16.80;99.90;;;;;;4998524;28;20037;-70
2023/05/31 05:05:40;;;;;;;7.93;4.55;;;16.90;99.90;;;;;;4999138;28;20572;-70
2023/05/31 05:08:07;;;;;;;7.55;5.35;;;17.10;99.90;;;;;;4998032;28;20483;-70
2023/05/31 05:10:32;;;;;;;7.72;5.05;;;17.10;99.90;;;;;;4997636;28;20018;-70
2023/05/31 05:12:58;;;;;;;10.38;4.90;;;17.20;99.90;;;;;;4981049;28;20025;-70
2023/05/31 05:15:24;;;;;;;10.57;5.15;;;17.20;99.90;;;;;;4981061;28;20106;-70
2023/05/31 05:17:50;;;;;;;10.30;4.93;;;17.20;99.90;;;;;;4998725;28;20557;-70
2023/05/31 05:20:15;;;;;;;8.63;5.00;;;17.20;99.90;;;;;;4997969;28;20406;-70
2023/05/31 05:22:42;;;;;;;11.98;5.18;;;17.30;99.90;;;;;;4997398;28;20506;-71
2023/05/31 05:25:08;;;;;;;7.85;4.88;;;17.40;99.90;;;;;;4996953;28;20062;-70
2023/05/31 05:27:34;;;;;;;6.38;4.57;;;17.40;99.90;;;;;;4997041;28;20482;-71
2023/05/31 05:29:59;;;;;;;8.90;5.47;;;17.50;99.90;;;;;;4996807;28;20026;-70
2023/05/31 05:32:25;;;;;;;9.10;5.22;;;17.60;99.90;;;;;;4998023;28;20073;-70
2023/05/31 05:34:51;;;;;;;15.18;4.88;;;17.60;99.90;;;;;;4997612;28;20038;-70
2023/05/31 05:37:16;;;;;;;5.72;4.28;;;17.70;99.90;;;;;;4997374;28;20031;-71
2023/05/31 05:39:42;;;;;;;7.88;5.05;;;17.80;99.90;;;;;;4997563;28;20038;-70
2023/05/31 05:42:08;;;;;;;8.27;4.43;;;17.80;99.90;;;;;;4997040;28;20037;-70
2023/05/31 05:44:33;;;;;;;6.90;4.78;;;17.90;99.90;;;;;;4997965;28;20030;-70
2023/05/31 05:46:59;;;;;;;7.28;4.50;;;17.90;99.90;;;;;;4980551;28;20026;-70
2023/05/31 05:49:25;;;;;;;6.55;4.75;;;17.90;99.90;;;;;;4997393;28;20061;-70
2023/05/31 05:51:50;;;;;;;6.30;4.60;;;18.00;99.90;;;;;;4980571;28;20030;-70
2023/05/31 05:54:16;;;;;;;7.93;4.78;;;18.00;99.90;;;;;;4996717;28;20562;-70
2023/05/31 05:56:41;;;;;;;8.77;4.40;;;18.10;99.90;;;;;;4997104;28;20157;-70
2023/05/31 05:59:08;;;;;;;6.75;4.78;;;18.10;99.90;;;;;;4979858;28;20073;-70
2023/05/31 06:01:35;;;;;;;7.15;4.75;;;18.00;99.90;;;;;;4979720;28;20064;-70
2023/05/31 06:04:01;;;;;;;7.97;4.40;;;18.00;99.90;;;;;;4999021;28;20029;-71
2023/05/31 06:06:27;;;;;;;4.93;4.28;;;18.10;99.90;;;;;;4997438;28;20019;-71
2023/05/31 06:08:52;;;;;;;5.88;4.10;;;18.10;99.90;;;;;;4997331;28;20038;-70
2023/05/31 06:11:18;;;;;;;8.98;4.45;;;18.20;99.90;;;;;;4996336;28;20488;-70
2023/05/31 06:13:44;;;;;;;8.20;4.82;;;18.30;99.90;;;;;;4997305;28;20101;-70
2023/05/31 06:16:10;;;;;;;6.57;4.15;;;18.30;99.90;;;;;;4996076;28;20081;-70
2023/05/31 06:18:35;;;;;;;11.18;5.60;;;18.30;99.90;;;;;;4996580;28;20465;-70
2023/05/31 06:21:01;;;;;;;8.02;4.32;;;18.50;99.90;;;;;;4995779;28;20026;-70
2023/05/31 06:23:28;;;;;;;8.43;4.18;;;18.50;99.90;;;;;;4996925;28;20030;-70
2023/05/31 06:25:53;;;;;;;9.82;4.45;;;18.50;99.90;;;;;;4995261;28;20022;-70
2023/05/31 06:28:19;;;;;;;7.35;5.05;;;18.60;99.90;;;;;;4995619;28;20070;-71
2023/05/31 06:30:45;;;;;;;8.25;4.55;;;18.50;99.90;;;;;;4996597;28;20030;-70
2023/05/31 06:33:12;;;;;;;7.13;5.15;;;18.60;99.90;;;;;;4996904;28;20018;-70
2023/05/31 06:35:39;;;;;;;8.10;4.57;;;18.70;99.90;;;;;;4997243;28;20513;-70
2023/05/31 06:38:05;;;;;;;9.82;5.38;;;18.70;99.90;;;;;;4996454;28;20040;-71
2023/05/31 06:40:31;;;;;;;7.18;5.03;;;18.80;99.90;;;;;;5001160;28;20054;-70
2023/05/31 06:42:56;;;;;;;7.78;5.63;;;18.90;99.90;;;;;;4996996;28;20022;-70
2023/05/31 06:45:22;;;;;;;7.72;5.53;;;18.90;99.90;;;;;;4996954;28;20083;-70
2023/05/31 06:47:48;;;;;;;9.32;5.55;;;19.00;99.90;;;;;;4979475;28;20033;-70
2023/05/31 06:50:14;;;;;;;10.27;5.28;;;19.00;99.90;;;;;;4996969;28;20097;-69
2023/05/31 06:52:40;;;;;;;9.05;5.35;;;19.00;99.90;;;;;;4987955;28;20026;-70
2023/05/31 06:55:06;;;;;;;8.95;4.80;;;19.10;99.90;;;;;;4981077;28;20026;-70
2023/05/31 06:57:31;;;;;;;10.50;6.22;;;19.10;99.90;;;;;;4997023;28;20057;-69
2023/05/31 06:59:57;;;;;;;10.18;5.88;;;19.10;99.90;;;;;;4997310;28;20398;-70
2023/05/31 07:02:23;;;;;;;9.77;6.38;;;19.10;99.90;;;;;;4996396;28;20512;-70
2023/05/31 07:04:49;;;;;;;10.18;6.53;;;19.00;99.90;;;;;;4979551;28;20083;-71
2023/05/31 07:07:15;;;;;;;9.18;6.07;;;19.10;99.90;;;;;;4995652;28;20054;-71
2023/05/31 07:09:41;;;;;;;9.40;6.28;;;19.00;99.90;;;;;;4996155;28;20037;-72
2023/05/31 07:12:07;;;;;;;11.82;6.57;;;18.90;99.90;;;;;;4995917;28;20036;-72
2023/05/31 07:14:32;;;;;;;11.68;6.93;;;19.00;99.90;;;;;;4997244;28;20085;-72
2023/05/31 07:16:58;;;;;;;13.05;6.65;;;19.10;99.90;;;;;;4996857;28;20034;-73
2023/05/31 07:19:24;;;;;;;9.70;7.10;;;19.10;99.90;;;;;;4997137;28;20077;-73
2023/05/31 07:21:49;;;;;;;9.20;7.05;;;19.10;99.90;;;;;;4996079;28;20027;-72
2023/05/31 07:24:15;;;;;;;9.75;6.55;;;19.30;99.90;;;;;;4978074;28;20582;-72
2023/05/31 07:26:41;;;;;;;10.88;6.05;;;19.50;99.90;;;;;;4995586;28;20022;-72
2023/05/31 07:29:06;;;;;;;11.75;6.82;;;19.50;99.90;;;;;;4976047;28;20027;-72
2023/05/31 07:31:32;;;;;;;21.13;9.13;;;19.40;99.90;;;;;;4992796;28;20042;-72
2023/05/31 07:33:58;;;;;;;10.23;5.85;;;19.30;99.90;;;;;;4987677;28;20026;-72
2023/05/31 07:36:24;;;;;;;9.98;6.47;;;19.20;99.90;;;;;;4996634;28;20026;-73
2023/05/31 07:38:51;;;;;;;11.88;6.15;;;19.20;99.90;;;;;;4998755;28;20022;-72
2023/05/31 07:41:16;;;;;;;13.20;8.18;;;19.30;99.90;;;;;;5000315;28;20026;-72
2023/05/31 07:43:45;;;;;;;12.07;6.97;;;19.40;99.90;;;;;;5000165;28;20102;-73
2023/05/31 07:46:11;;;;;;;15.20;7.03;;;19.60;99.90;;;;;;4999819;28;20061;-71
2023/05/31 07:48:37;;;;;;;15.80;7.50;;;19.60;99.90;;;;;;4999906;28;20101;-71
2023/05/31 07:51:03;;;;;;;15.95;7.15;;;19.70;99.90;;;;;;4999782;28;20066;-72
2023/05/31 07:53:28;;;;;;;13.48;6.57;;;19.70;99.90;;;;;;4983267;28;20022;-71
2023/05/31 07:55:54;;;;;;;18.92;7.40;;;19.70;99.90;;;;;;4999436;28;20547;-71
2023/05/31 07:58:20;;;;;;;11.20;7.38;;;19.80;99.90;;;;;;5000246;28;20098;-71
2023/05/31 08:00:46;;;;;;;17.52;7.63;;;19.90;99.90;;;;;;4999696;28;20486;-71
2023/05/31 08:03:12;;;;;;;10.00;6.82;;;20.00;99.90;;;;;;4999721;28;20038;-71
2023/05/31 08:05:37;;;;;;;12.50;7.38;;;20.20;99.90;;;;;;5005860;28;20037;-71
2023/05/31 08:08:05;;;;;;;10.13;7.00;;;20.40;99.90;;;;;;4999860;28;20034;-71
2023/05/31 08:10:31;;;;;;;16.10;7.35;;;20.50;99.90;;;;;;4999839;28;20022;-71
2023/05/31 08:12:57;;;;;;;12.57;8.02;;;20.60;99.90;;;;;;4998247;28;20406;-71
2023/05/31 08:15:22;;;;;;;10.60;7.20;;;20.50;99.90;;;;;;4999299;28;20403;-71
2023/05/31 08:17:48;;;;;;;13.90;8.18;;;20.60;99.90;;;;;;4998989;28;20031;-71
2023/05/31 08:20:16;;;;;;;12.38;8.00;;;20.60;99.90;;;;;;4999260;28;20030;-71
2023/05/31 08:22:44;;;;;;;11.10;7.35;;;20.70;99.90;;;;;;4999379;28;20050;-70
2023/05/31 08:25:12;;;;;;;11.10;7.82;;;20.70;99.90;;;;;;4999195;28;20023;-71
2023/05/31 08:27:40;;;;;;;11.43;8.23;;;21.00;99.90;;;;;;4999257;28;20034;-73
2023/05/31 08:30:11;;;;;;;13.50;8.82;;;21.00;99.90;;;;;;4999046;28;20408;-73
2023/05/31 08:32:38;;;;;;;15.65;8.30;;;20.90;99.90;;;;;;4999772;28;20026;-70
2023/05/31 08:35:06;;;;;;;14.88;8.20;;;20.60;99.90;;;;;;4999283;28;20106;-71
2023/05/31 08:37:35;;;;;;;17.55;7.63;;;20.70;99.90;;;;;;4999426;28;20028;-71
2023/05/31 08:40:03;;;;;;;14.32;9.02;;;20.70;99.90;;;;;;4999085;28;20048;-70
2023/05/31 08:42:40;;;;;;;17.35;9.10;;;20.90;99.90;;;;;;4999314;28;20050;-71
2023/05/31 08:45:08;;;;;;;12.57;8.05;;;20.90;99.90;;;;;;4981040;28;20030;-70
2023/05/31 08:47:43;;;;;;;18.40;8.48;;;21.10;99.90;;;;;;4997566;28;20094;-70
2023/05/31 08:50:10;;;;;;;15.48;8.65;;;21.10;99.90;;;;;;4999398;28;20053;-71
2023/05/31 08:52:36;;;;;;;14.93;9.23;;;21.30;99.90;;;;;;4997040;28;20049;-70
2023/05/31 08:55:04;;;;;;;12.35;8.23;;;21.40;99.90;;;;;;4998915;28;20948;-71
2023/05/31 08:57:31;;;;;;;12.63;8.88;;;21.60;99.90;;;;;;4996125;28;20129;-71
2023/05/31 08:59:58;;;;;;;13.52;8.35;;;21.70;99.90;;;;;;4998115;28;20033;-70
2023/05/31 09:02:24;;;;;;;16.85;8.82;;;21.80;99.90;;;;;;4998552;28;20041;-71
2023/05/31 09:04:50;;;;;;;16.83;9.95;;;22.00;99.90;;;;;;5003810;28;20026;-71
2023/05/31 09:07:17;;;;;;;15.00;8.82;;;22.10;99.90;;;;;;4998487;28;20041;-70
2023/05/31 09:09:43;;;;;;;12.88;8.13;;;22.00;99.90;;;;;;4998032;28;20018;-71
2023/05/31 09:12:08;;;;;;;15.90;9.82;;;22.10;99.90;;;;;;4997968;28;20084;-71
2023/05/31 09:14:34;;;;;;;11.30;8.35;;;22.50;99.90;;;;;;4997583;28;20105;-70
2023/05/31 09:17:00;;;;;;;11.45;7.10;;;22.90;99.90;;;;;;4998363;28;20133;-70
2023/05/31 09:19:26;;;;;;;10.60;8.13;;;23.30;99.90;;;;;;4981041;28;20022;-71
2023/05/31 09:21:52;;;;;;;11.07;7.70;;;23.10;99.90;;;;;;4980908;28;20030;-71
2023/05/31 09:24:19;;;;;;;12.82;8.85;;;22.80;99.90;;;;;;4980860;28;20110;-70
2023/05/31 09:26:51;;;;;;;14.73;9.00;;;22.60;99.90;;;;;;4998466;28;20026;-71
2023/05/31 09:29:19;;;;;;;18.10;9.10;;;22.60;99.90;;;;;;4998348;28;20044;-71
2023/05/31 09:31:45;;;;;;;13.05;8.80;;;22.60;99.90;;;;;;4998267;28;20375;-71
2023/05/31 09:34:29;;;;;;;13.35;9.25;;;22.50;99.90;;;;;;4998128;28;20065;-70
2023/05/31 09:36:58;;;;;;;15.48;9.50;;;22.10;99.90;;;;;;4998420;28;20069;-72
2023/05/31 09:39:24;;;;;;;15.65;9.07;;;22.00;99.90;;;;;;4998175;28;20011;-72
2023/05/31 09:41:51;;;;;;;15.80;8.82;;;22.10;99.90;;;;;;4980699;28;20026;-71
2023/05/31 09:44:17;;;;;;;17.30;9.38;;;22.20;99.90;;;;;;4997871;28;20391;-71
2023/05/31 09:46:45;;;;;;;15.77;9.07;;;22.40;99.90;;;;;;4998208;28;20018;-71
2023/05/31 09:49:11;;;;;;;21.38;9.60;;;22.40;99.90;;;;;;4998010;28;20030;-71
2023/05/31 09:51:36;;;;;;;15.43;8.73;;;22.60;99.90;;;;;;4997760;28;20034;-72
2023/05/31 09:54:10;;;;;;;18.15;10.70;;;22.80;99.90;;;;;;4998039;28;20600;-71
2023/05/31 09:56:41;;;;;;;16.55;8.75;;;22.70;99.90;;;;;;4986899;28;20049;-70
2023/05/31 09:59:07;;;;;;;15.43;10.02;;;22.90;99.90;;;;;;5017598;28;20482;-71
2023/05/31 10:01:34;;;;;;;16.05;10.35;;;22.70;99.90;;;;;;5017452;28;20033;-71
2023/05/31 10:04:03;;;;;;;15.32;9.27;;;22.70;99.90;;;;;;5021229;28;20112;-71
2023/05/31 10:06:29;;;;;;;13.63;10.02;;;22.90;99.90;;;;;;5018259;28;20513;-72
2023/05/31 10:08:55;;;;;;;16.00;9.85;;;23.00;99.90;;;;;;5017415;28;20029;-71
2023/05/31 10:11:26;;;;;;;17.00;11.02;;;23.20;99.90;;;;;;5015951;28;20018;-72
2023/05/31 10:13:58;;;;;;;15.50;10.05;;;23.00;99.90;;;;;;5017286;28;20018;-72
2023/05/31 10:16:33;;;;;;;15.68;9.98;;;22.70;99.90;;;;;;5017173;28;20030;-72
2023/05/31 10:19:03;;;;;;;15.07;10.10;;;22.50;99.90;;;;;;5017128;28;20041;-71
2023/05/31 10:21:29;;;;;;;14.85;10.00;;;22.20;99.90;;;;;;5017203;28;20509;-72
2023/05/31 10:24:03;;;;;;;14.43;10.23;;;22.00;99.90;;;;;;4999525;28;20029;-71
2023/05/31 10:27:02;;;;;;;18.33;10.05;;;21.90;99.90;;;;;;5016971;28;20054;-70
2023/05/31 10:29:33;;;;;;;17.17;10.48;;;21.90;99.90;;;;;;5003834;28;20085;-70
2023/05/31 10:32:10;;;;;;;17.23;10.40;;;21.80;99.90;;;;;;5017138;28;20028;-70
2023/05/31 10:34:36;;;;;;;16.75;10.77;;;21.80;99.90;;;;;;5013429;28;20026;-70
2023/05/31 10:37:03;;;;;;;22.90;10.05;;;21.80;99.90;;;;;;5017127;28;20084;-71
2023/05/31 10:39:43;;;;;;;21.85;11.55;;;21.80;99.90;;;;;;5012990;28;20029;-71
2023/05/31 10:42:20;;;;;;;17.90;10.90;;;22.00;99.90;;;;;;5015479;28;20026;-71
2023/05/31 10:45:01;;;;;;;16.95;9.93;;;22.00;99.90;;;;;;5005500;28;20037;-71
2023/05/31 10:47:36;;;;;;;14.45;10.55;;;22.30;99.90;;;;;;5016441;28;20025;-72
2023/05/31 10:50:03;;;;;;;14.95;9.88;;;22.70;99.90;;;;;;5007571;28;20021;-71
2023/05/31 10:52:32;;;;;;;15.40;9.77;;;23.20;99.90;;;;;;4999003;28;20022;-71
2023/05/31 10:55:22;;;;;;;12.73;9.57;;;23.50;99.90;;;;;;5001190;28;20095;-71
2023/05/31 10:57:55;;;;;;;17.08;9.77;;;23.60;99.90;;;;;;4989593;28;20050;-72
2023/05/31 11:00:23;;;;;;;18.25;10.32;;;23.40;99.90;;;;;;4996963;28;20402;-71
2023/05/31 11:02:56;;;;;;;15.20;9.30;;;23.50;99.90;;;;;;4979586;28;20115;-71
2023/05/31 11:05:24;;;;;;;13.27;9.25;;;23.60;99.90;;;;;;4997232;28;20038;-71
2023/05/31 11:07:51;;;;;;;14.00;9.40;;;23.70;99.90;;;;;;4997471;28;20026;-71
2023/05/31 11:10:35;;;;;;;18.23;10.38;;;23.90;99.90;;;;;;4981854;28;20026;-71
2023/05/31 11:13:04;;;;;;;12.82;9.65;;;23.90;99.90;;;;;;5001177;28;20074;-71
2023/05/31 11:15:43;;;;;;;21.65;9.07;;;23.90;99.90;;;;;;5000794;28;20394;-71
2023/05/31 11:18:30;;;;;;;12.50;9.18;;;23.90;99.90;;;;;;5000647;28;20026;-71
2023/05/31 11:20:56;;;;;;;20.23;8.88;;;24.00;99.90;;;;;;5000332;28;20104;-71
2023/05/31 11:23:31;;;;;;;13.70;8.00;;;24.10;99.90;;;;;;5000871;28;20113;-72
2023/05/31 11:26:29;;;;;;;12.85;8.80;;;24.30;99.90;;;;;;5000533;28;20029;-71
2023/05/31 11:29:00;;;;;;;14.70;8.27;;;24.20;99.90;;;;;;4952889;28;20026;-72
2023/05/31 11:31:55;;;;;;;14.30;8.27;;;24.40;99.90;;;;;;5000573;28;20045;-72
2023/05/31 11:34:26;;;;;;;13.25;8.15;;;24.40;99.90;;;;;;4985681;28;20395;-71
2023/05/31 11:36:52;;;;;;;;;;;24.40;99.90;;;;;;4982141;28;20022;-71
2023/05/31 11:39:19;;;;;;;16.35;9.50;;;24.40;99.90;;;;;;5000425;28;19913;-71
2023/05/31 11:41:45;;;;;;;9.48;6.75;;;24.60;99.90;;;;;;5000473;28;20030;-72
2023/05/31 11:44:26;;;;;;;15.18;7.75;;;24.60;99.90;;;;;;5000199;28;20508;-71
2023/05/31 11:47:05;;;;;;;14.35;8.13;;;24.70;99.90;;;;;;4997372;28;20584;-71
2023/05/31 11:49:32;;;;;;;9.77;7.00;;;24.70;99.90;;;;;;4998567;28;20026;-71
2023/05/31 11:51:57;;;;;;;10.77;7.25;;;24.80;99.90;;;;;;4980977;28;20015;-72
2023/05/31 11:54:30;;;;;;;8.68;5.55;;;24.90;99.90;;;;;;5000266;28;20479;-71
2023/05/31 11:57:02;;;;;;;12.02;7.07;;;25.00;99.90;;;;;;4992679;28;20054;-71
2023/05/31 11:59:32;;;;;;;9.07;6.70;;;25.10;99.90;;;;;;5019959;28;20021;-71
2023/05/31 12:02:00;;;;;;;10.07;6.78;;;25.20;99.90;;;;;;5019440;28;20077;-71
2023/05/31 12:04:33;;;;;;;11.13;7.15;;;25.00;99.90;;;;;;5027428;28;20125;-71
2023/05/31 12:06:59;;;;;;;13.88;7.10;;;25.10;99.90;;;;;;5020342;28;20025;-72
2023/05/31 12:09:27;;;;;;;8.20;6.72;;;25.40;99.90;;;;;;5019682;28;20025;-72
2023/05/31 12:11:55;;;;;;;12.88;6.80;;;25.80;99.90;;;;;;5001732;28;20022;-73
2023/05/31 12:14:21;;;;;;;11.80;6.57;;;26.10;99.90;;;;;;5019315;28;20017;-72
2023/05/31 12:16:50;;;;;;;13.43;6.78;;;26.00;99.90;;;;;;5019474;28;20030;-71
2023/05/31 12:19:16;;;;;;;9.95;6.82;;;25.80;99.90;;;;;;5019225;28;20022;-71
2023/05/31 12:21:42;;;;;;;11.73;5.55;;;25.60;99.90;;;;;;5018889;28;20026;-72
2023/05/31 12:24:12;;;;;;;13.50;6.40;;;25.40;99.90;;;;;;5001370;28;20398;-73
2023/05/31 12:26:38;;;;;;;9.68;6.22;;;25.60;99.90;;;;;;5001841;28;20072;-73
2023/05/31 12:29:04;;;;;;;9.23;6.10;;;26.10;99.90;;;;;;5019032;28;20030;-73
2023/05/31 12:31:32;;;;;;;9.15;6.10;;;26.60;99.90;;;;;;5019100;28;20014;-73
2023/05/31 12:34:12;;;;;;;8.85;6.22;;;26.60;99.90;;;;;;5001312;28;20022;-74
2023/05/31 12:36:43;;;;;;;9.98;6.32;;;26.90;99.90;;;;;;5019219;28;20137;-75
2023/05/31 12:39:20;;;;;;;10.23;6.10;;;27.00;99.90;;;;;;5001102;28;20041;-71
2023/05/31 12:41:48;;;;;;;10.30;6.07;;;27.30;99.90;;;;;;5001130;28;20030;-73
2023/05/31 12:44:16;;;;;;;9.35;6.63;;;27.70;99.90;;;;;;5018764;28;20068;-72
2023/05/31 12:46:46;;;;;;;8.52;6.03;;;27.80;99.90;;;;;;5008542;28;20477;-71